EKSP/SKS METAR and TAF weather

Enter ICAO airport designator
Station Type Date Time Source
EKSP METAR 2020/01/22 12:20 UTC NOAA

EKSP 221220Z 32007KT 9999 SCT016 BKN240 07/04 Q1031 NOSIG


Station Type Date Time Source
EKSP Decoded METAR 2020/01/22 12:20 UTC NOAA

Skrydstrup, Denmark (EKSP) 55-14N 009-16E 47M
Jan 22, 2020 - 07:20 AM EST / 2020.01.22 1220 UTC
Wind: from the NW (320 degrees) at 8 MPH (7 KT):0
Visibility: greater than 7 mile(s):0
Sky conditions: mostly cloudy
Temperature: 44 F (7 C)
Dew Point: 39 F (4 C)
Relative Humidity: 81%
Pressure (altimeter): 30.45 in. Hg (1031 hPa)
ob: EKSP 221220Z 32007KT 9999 SCT016 BKN240 07/04 Q1031 NOSIG
cycle: 12

Station Type Date Time Source
EKSP TAF 2020/01/22 12:30 UTC NOAA

TAF EKSP 221128Z 2212/2312 31012KT 9999 SCT020 BKN200
BECMG 2214/2216 30005KT
BECMG 2222/2301 25008KT 3000 BR BKN008
TEMPO 2302/2312 1200 BKN003

Example: see airport list